Time;durP1;ratioP1;P1;durP2;ratioP2;P2;SDS_P1;SDS_P2;PMS_P1;PMS_P2;Temp;Humidity;BMP_temperature;BMP_pressure;BME280_temperature;BME280_humidity;BME280_pressure;Samples;Min_cycle;Max_cycle;Signal;HPM_P1;HPM_P2
2022/12/17 13:06:08;;;;;;;3.07;2.77;;;;;;;17.60;74.76;94617.53;5072799;28;20302;-45
2022/12/17 13:08:35;;;;;;;3.67;2.67;;;;;;;17.70;74.94;94641.31;5072859;28;20676;-47
2022/12/17 13:11:11;;;;;;;4.07;3.13;;;;;;;17.52;74.91;94621.03;5072768;28;20252;-45
2022/12/17 13:13:54;;;;;;;3.87;2.63;;;;;;;17.59;75.10;94641.81;5073270;28;20198;-49
2022/12/17 13:16:31;;;;;;;4.67;2.80;;;;;;;17.52;75.10;94624.41;5072972;28;20207;-46
2022/12/17 13:19:16;;;;;;;3.80;2.53;;;;;;;17.45;75.21;94623.56;5072607;28;20201;-47
2022/12/17 13:21:42;;;;;;;2.90;2.60;;;;;;;17.41;75.32;94630.06;5072738;28;20610;-45
2022/12/17 13:24:22;;;;;;;3.30;3.00;;;;;;;17.38;75.36;94629.63;5072770;28;20251;-45
2022/12/17 13:26:49;;;;;;;3.70;3.07;;;;;;;17.33;75.17;94643.09;5082623;28;20188;-45
2022/12/17 13:29:27;;;;;;;3.00;2.80;;;;;;;17.27;75.40;94654.97;5093045;28;20197;-49
2022/12/17 13:32:09;;;;;;;5.50;3.17;;;;;;;17.24;75.35;94665.66;5092939;28;20181;-48
2022/12/17 13:35:01;;;;;;;3.77;2.73;;;;;;;17.21;75.47;94652.28;5092462;28;20193;-48
2022/12/17 13:37:38;;;;;;;4.17;2.87;;;;;;;17.17;75.38;94656.19;5092534;28;20495;-45
2022/12/17 13:40:19;;;;;;;5.93;3.10;;;;;;;17.12;75.64;94656.72;5092798;28;20193;-48
2022/12/17 13:42:46;;;;;;;4.43;3.37;;;;;;;17.04;75.58;94669.75;5092142;28;20189;-45
2022/12/17 13:45:16;;;;;;;5.17;3.50;;;;;;;17.03;75.50;94673.31;5092831;28;20182;-45
2022/12/17 13:47:42;;;;;;;4.53;3.60;;;;;;;16.99;75.56;94669.47;5092389;28;20194;-44
2022/12/17 13:50:21;;;;;;;4.33;3.33;;;;;;;16.93;75.83;94678.75;5092589;28;20193;-46
2022/12/17 13:52:48;;;;;;;6.47;3.27;;;;;;;16.89;75.76;94667.16;5091605;28;20185;-48
2022/12/17 13:55:20;;;;;;;4.50;3.50;;;;;;;16.77;75.86;94653.06;5092167;28;20193;-45
2022/12/17 13:57:47;;;;;;;4.37;3.10;;;;;;;16.82;75.86;94658.50;5091922;28;20249;-47
2022/12/17 14:00:20;;;;;;;3.70;3.40;;;;;;;16.81;75.89;94664.66;5092590;28;20255;-45
2022/12/17 14:02:47;;;;;;;6.30;4.23;;;;;;;16.82;75.80;94655.13;5091756;28;20560;-45
2022/12/17 14:05:28;;;;;;;4.33;3.50;;;;;;;16.79;75.77;94669.97;5092074;28;20193;-44
2022/12/17 14:08:00;;;;;;;4.00;3.57;;;;;;;16.80;75.91;94670.81;5091454;28;20205;-44
2022/12/17 14:10:29;;;;;;;8.10;3.67;;;;;;;16.75;75.85;94671.34;5092520;28;20181;-44
2022/12/17 14:13:04;;;;;;;4.47;3.60;;;;;;;16.69;76.01;94677.16;5091557;28;20189;-46
2022/12/17 14:15:31;;;;;;;5.03;3.73;;;;;;;16.62;75.99;94685.78;5091814;28;20193;-44
2022/12/17 14:17:58;;;;;;;6.93;4.23;;;;;;;16.49;76.15;94692.34;5091563;28;20221;-43
2022/12/17 14:20:30;;;;;;;4.40;3.63;;;;;;;16.47;76.22;94691.69;5091524;28;20627;-44
2022/12/17 14:23:01;;;;;;;4.73;3.40;;;;;;;16.27;76.56;94673.28;5091507;28;20217;-45
2022/12/17 14:25:34;;;;;;;3.93;3.33;;;;;;;16.34;76.54;94694.06;5091968;28;20197;-45
2022/12/17 14:28:03;;;;;;;3.90;3.60;;;;;;;16.27;76.68;94687.97;5091273;28;20550;-49
2022/12/17 14:30:36;;;;;;;3.73;3.23;;;;;;;16.11;76.62;94688.91;5091799;28;20193;-46
2022/12/17 14:33:05;;;;;;;4.13;3.33;;;;;;;16.08;76.88;94691.84;5091529;28;20186;-46
2022/12/17 14:35:39;;;;;;;4.73;3.60;;;;;;;16.07;77.10;94697.16;5091695;28;20204;-45
2022/12/17 14:38:05;;;;;;;5.53;3.90;;;;;;;16.01;77.26;94698.63;5091304;28;20649;-44
2022/12/17 14:40:32;;;;;;;5.97;4.03;;;;;;;15.95;77.37;94709.66;5091581;28;20196;-48
2022/12/17 14:43:01;;;;;;;3.87;3.10;;;;;;;15.83;77.51;94703.25;5091294;28;20194;-43
2022/12/17 14:45:29;;;;;;;9.97;3.87;;;;;;;15.80;77.58;94712.97;5091762;28;20186;-43
2022/12/17 14:47:58;;;;;;;5.97;3.93;;;;;;;15.65;77.80;94706.09;5091040;28;20186;-44
2022/12/17 14:50:30;;;;;;;4.57;3.80;;;;;;;15.63;78.04;94713.16;5091747;28;20186;-44
2022/12/17 14:52:59;;;;;;;5.23;3.60;;;;;;;15.60;78.03;94732.34;5091125;28;20193;-48
2022/12/17 14:55:52;;;;;;;4.83;3.77;;;;;;;15.52;78.20;94729.81;5091556;28;20191;-44
2022/12/17 14:58:21;;;;;;;6.93;3.93;;;;;;;15.43;78.38;94721.28;5090476;28;20700;-43
2022/12/17 15:00:52;;;;;;;7.87;4.03;;;;;;;15.39;78.50;94729.53;5090994;28;20664;-45
2022/12/17 15:03:25;;;;;;;6.00;4.00;;;;;;;15.30;78.69;94721.81;5091016;28;20200;-50
2022/12/17 15:05:56;;;;;;;5.53;4.10;;;;;;;15.14;78.62;94708.19;5090070;28;20189;-46
2022/12/17 15:08:25;;;;;;;6.40;4.43;;;;;;;15.19;78.81;94734.25;5086176;28;20635;-47
2022/12/17 15:10:52;;;;;;;4.30;3.70;;;;;;;15.16;78.95;94732.00;5082300;28;20645;-46
2022/12/17 15:13:19;;;;;;;4.60;4.13;;;;;;;15.09;78.98;94739.59;5070249;28;20662;-44
2022/12/17 15:15:46;;;;;;;4.93;3.87;;;;;;;15.04;79.18;94745.22;5072136;28;20533;-48
2022/12/17 15:18:13;;;;;;;5.40;4.30;;;;;;;14.99;79.23;94741.53;5081389;28;20209;-45
2022/12/17 15:20:40;;;;;;;5.30;4.33;;;;;;;14.91;79.53;94749.28;5088086;28;20228;-46
2022/12/17 15:23:13;;;;;;;5.40;3.73;;;;;;;14.85;79.44;94752.47;5067821;28;20197;-44
2022/12/17 15:25:42;;;;;;;6.70;4.10;;;;;;;14.79;79.77;94754.75;5070449;28;20186;-45
2022/12/17 15:28:09;;;;;;;5.60;4.27;;;;;;;14.73;79.88;94757.97;5088233;28;20186;-46
2022/12/17 15:30:36;;;;;;;5.37;4.60;;;;;;;14.66;80.00;94753.63;5068876;28;20230;-46
2022/12/17 15:33:03;;;;;;;6.93;4.60;;;;;;;14.65;79.98;94749.44;5067330;28;20195;-45
2022/12/17 15:35:30;;;;;;;6.23;4.33;;;;;;;14.59;80.08;94753.44;5067454;28;20712;-46
2022/12/17 15:37:57;;;;;;;5.33;4.37;;;;;;;14.54;80.30;94763.44;5066960;28;20282;-46
2022/12/17 15:40:23;;;;;;;6.60;4.50;;;;;;;14.49;80.41;94758.75;5067493;28;20194;-46
2022/12/17 15:45:36;;;;;;;7.17;4.73;;;;;;;14.39;80.38;94765.81;5078712;28;20220;-47
2022/12/17 15:48:03;;;;;;;6.73;5.27;;;;;;;14.35;80.62;94763.72;5067227;28;20190;-44
2022/12/17 15:50:30;;;;;;;7.20;5.90;;;;;;;14.30;80.84;94770.13;5066915;28;20198;-45
2022/12/17 15:52:57;;;;;;;6.90;4.80;;;;;;;14.26;80.79;94766.28;5068116;28;20619;-44
2022/12/17 15:55:24;;;;;;;6.63;4.93;;;;;;;14.21;80.72;94765.94;5067505;28;20191;-49
2022/12/17 15:57:52;;;;;;;7.77;5.50;;;;;;;14.17;80.98;94777.50;5082012;28;20240;-46
2022/12/17 16:00:19;;;;;;;6.73;5.33;;;;;;;14.14;80.85;94764.16;5087120;28;20189;-45
2022/12/17 16:02:47;;;;;;;7.10;5.70;;;;;;;14.10;80.92;94776.50;5081918;28;20208;-47
2022/12/17 16:05:14;;;;;;;10.97;5.30;;;;;;;14.06;81.10;94783.72;5066997;28;20271;-46
2022/12/17 16:07:42;;;;;;;7.27;5.67;;;;;;;14.05;81.19;94791.63;5072274;28;20255;-45
2022/12/17 16:10:10;;;;;;;7.43;5.93;;;;;;;14.01;81.35;94793.69;5086802;28;20204;-45
2022/12/17 16:12:37;;;;;;;9.33;5.90;;;;;;;13.54;81.26;94735.03;5086413;28;20228;-44
2022/12/17 16:15:08;;;;;;;8.67;5.97;;;;;;;13.96;81.44;94800.25;5085999;28;20676;-46
2022/12/17 16:17:35;;;;;;;7.17;6.30;;;;;;;13.89;81.36;94796.69;5085543;28;20243;-45
2022/12/17 16:20:01;;;;;;;9.20;7.17;;;;;;;13.91;81.33;94800.75;5086972;28;20186;-45
2022/12/17 16:22:28;;;;;;;9.53;6.90;;;;;;;13.88;81.54;94800.22;5086888;28;20186;-44
2022/12/17 16:24:55;;;;;;;9.60;7.23;;;;;;;13.81;81.44;94792.31;5086585;28;20219;-45
2022/12/17 16:27:22;;;;;;;12.73;8.10;;;;;;;13.84;81.55;94809.22;5086923;28;20182;-46
2022/12/17 16:29:49;;;;;;;10.80;8.03;;;;;;;13.82;81.87;94817.09;5086906;28;20193;-46
2022/12/17 16:32:17;;;;;;;10.33;8.23;;;;;;;13.79;81.46;94819.97;5083043;28;20578;-45
2022/12/17 16:34:44;;;;;;;11.23;8.60;;;;;;;13.76;81.83;94826.19;5086534;28;20507;-43
2022/12/17 16:37:11;;;;;;;12.97;8.83;;;;;;;13.09;81.76;94719.88;5081508;28;20719;-45
2022/12/17 16:39:38;;;;;;;11.40;8.40;;;;;;;13.73;81.74;94834.25;5075808;28;20186;-44
2022/12/17 16:42:05;;;;;;;13.40;9.23;;;;;;;13.70;81.75;94826.84;5067848;28;20259;-45
2022/12/17 16:44:32;;;;;;;12.50;9.47;;;;;;;13.67;81.80;94834.84;5077546;28;20186;-43
2022/12/17 16:46:58;;;;;;;15.70;10.37;;;;;;;13.66;81.84;94833.22;5066550;28;20198;-46
2022/12/17 16:49:27;;;;;;;13.70;10.30;;;;;;;13.65;81.75;94831.63;5075418;28;20217;-46
2022/12/17 16:51:55;;;;;;;12.90;9.80;;;;;;;13.62;81.94;94829.34;5086394;28;20570;-46
2022/12/17 16:54:24;;;;;;;14.93;10.27;;;;;;;13.58;81.96;94830.63;5086970;28;20632;-45
2022/12/17 16:56:52;;;;;;;14.83;10.93;;;;;;;13.41;81.75;94810.94;5086342;28;20722;-45
2022/12/17 16:59:19;;;;;;;14.80;11.07;;;;;;;13.57;81.95;94839.28;5087085;28;20194;-46
2022/12/17 17:01:47;;;;;;;15.60;11.43;;;;;;;13.53;81.78;94843.13;5086748;28;20260;-45
2022/12/17 17:04:16;;;;;;;16.00;12.57;;;;;;;13.52;82.10;94849.22;5086725;28;20672;-44
2022/12/17 17:06:47;;;;;;;17.27;11.73;;;;;;;13.38;81.76;94840.28;5086781;28;20198;-47
2022/12/17 17:09:15;;;;;;;18.53;12.67;;;;;;;13.48;82.04;94855.63;5086897;28;20196;-45
2022/12/17 17:11:42;;;;;;;19.87;14.13;;;;;;;13.46;82.03;94858.31;5086304;28;20260;-47
2022/12/17 17:14:10;;;;;;;19.43;14.27;;;;;;;13.44;82.01;94857.69;5086193;28;20198;-48
2022/12/17 17:16:37;;;;;;;23.03;15.00;;;;;;;13.43;81.82;94856.06;5068134;28;20179;-50
2022/12/17 17:19:05;;;;;;;19.00;13.83;;;;;;;13.40;82.09;94866.66;5066107;28;20217;-46
2022/12/17 17:21:34;;;;;;;16.50;13.57;;;;;;;13.37;82.00;94866.94;5066087;28;20210;-49
2022/12/17 17:24:06;;;;;;;21.80;15.53;;;;;;;13.35;82.14;94873.19;5070958;28;20715;-49
2022/12/17 17:26:34;;;;;;;21.97;14.17;;;;;;;13.33;82.13;94878.47;5066573;28;20189;-50
2022/12/17 17:29:01;;;;;;;21.27;14.93;;;;;;;13.31;82.32;94875.25;5072037;28;20186;-45
2022/12/17 17:31:28;;;;;;;24.73;15.87;;;;;;;13.21;82.11;94870.19;5073752;28;20202;-46
2022/12/17 17:33:55;;;;;;;24.73;15.87;;;;;;;13.26;82.35;94885.97;5086409;28;20888;-47
2022/12/17 17:36:23;;;;;;;23.20;15.77;;;;;;;13.24;82.21;94892.22;5089705;28;20202;-45
2022/12/17 17:38:52;;;;;;;22.17;16.47;;;;;;;13.21;82.14;94893.28;5083231;28;20212;-46
2022/12/17 17:41:22;;;;;;;20.60;15.90;;;;;;;13.01;82.01;94866.16;5080217;28;20190;-44
2022/12/17 17:43:53;;;;;;;23.10;15.60;;;;;;;13.18;82.28;94897.91;5078666;28;20206;-48
2022/12/17 17:46:20;;;;;;;24.70;16.60;;;;;;;13.16;82.25;94905.75;5088105;28;20575;-47
2022/12/17 17:48:48;;;;;;;22.87;16.40;;;;;;;13.12;82.30;94904.44;5077668;28;20182;-47
2022/12/17 17:51:17;;;;;;;26.83;15.63;;;;;;;13.12;82.23;94911.34;5089502;28;20209;-46
2022/12/17 17:53:44;;;;;;;25.57;16.87;;;;;;;13.08;82.25;94908.25;5087764;28;20193;-46
2022/12/17 17:56:14;;;;;;;21.67;16.37;;;;;;;13.05;82.15;94917.06;5077551;28;20225;-46
2022/12/17 17:58:44;;;;;;;24.40;17.23;;;;;;;13.07;82.22;94920.28;5089140;28;20806;-46
2022/12/17 18:01:13;;;;;;;24.30;16.27;;;;;;;13.06;82.22;94917.88;5088577;28;20198;-47
2022/12/17 18:03:40;;;;;;;25.77;18.57;;;;;;;13.05;82.28;94924.78;5089491;28;20186;-45
2022/12/17 18:06:09;;;;;;;24.63;18.10;;;;;;;12.94;82.17;94919.03;5070668;28;20187;-49
2022/12/17 18:08:37;;;;;;;27.60;17.73;;;;;;;13.02;82.36;94935.31;5070784;28;20194;-46
2022/12/17 18:11:05;;;;;;;22.20;16.40;;;;;;;12.96;82.22;94938.50;5085972;28;20198;-47
2022/12/17 18:16:19;;;;;;;23.90;16.97;;;;;;;12.99;82.43;94956.16;5089381;28;20327;-47
2022/12/17 18:18:46;;;;;;;23.80;16.83;;;;;;;12.99;82.35;94965.63;5089692;28;20213;-47
2022/12/17 18:21:14;;;;;;;24.23;17.43;;;;;;;12.97;82.46;94963.19;5088975;28;20193;-46
2022/12/17 18:23:42;;;;;;;21.70;15.50;;;;;;;12.96;82.24;94968.50;5089281;28;20239;-49
2022/12/17 18:26:10;;;;;;;24.37;16.53;;;;;;;12.94;82.40;94970.38;5089006;28;20279;-48
2022/12/17 18:28:40;;;;;;;25.43;17.70;;;;;;;12.95;82.37;94977.13;5087611;28;20197;-48
2022/12/17 18:31:09;;;;;;;22.77;16.13;;;;;;;12.94;82.35;94983.22;5089117;28;20186;-46
2022/12/17 18:33:41;;;;;;;26.90;18.27;;;;;;;12.93;82.60;94987.53;5088648;28;20640;-48
2022/12/17 18:36:12;;;;;;;26.53;18.43;;;;;;;12.92;82.43;94990.28;5088437;28;20194;-45
2022/12/17 18:38:39;;;;;;;25.57;18.70;;;;;;;12.85;82.47;94989.22;5088121;28;20229;-45
2022/12/17 18:43:55;;;;;;;27.97;19.23;;;;;;;12.87;82.59;95006.09;5083731;28;21134;-50
2022/12/17 18:46:22;;;;;;;28.10;20.10;;;;;;;12.79;82.59;94999.13;5069240;28;20202;-43
2022/12/17 18:48:52;;;;;;;25.23;19.33;;;;;;;12.84;82.62;94998.69;5074973;28;20281;-44
2022/12/17 18:51:20;;;;;;;28.47;20.10;;;;;;;12.82;82.55;95013.41;5070770;28;20190;-45
2022/12/17 18:53:47;;;;;;;27.50;19.90;;;;;;;12.81;82.59;95015.16;5077088;28;20196;-46
2022/12/17 18:56:14;;;;;;;27.83;18.97;;;;;;;12.80;82.74;95020.44;5088983;28;20221;-46
2022/12/17 18:58:41;;;;;;;27.57;20.17;;;;;;;12.78;82.48;95024.94;5072313;28;20218;-44
2022/12/17 19:01:17;;;;;;;26.47;18.80;;;;;;;12.76;82.72;95031.94;5068433;28;20271;-44
2022/12/17 19:03:44;;;;;;;26.97;18.10;;;;;;;12.76;82.55;95035.31;5068916;28;20265;-46
2022/12/17 19:06:12;;;;;;;25.83;17.67;;;;;;;12.74;82.76;95037.22;5073877;28;20186;-48
2022/12/17 19:08:39;;;;;;;24.87;17.77;;;;;;;12.74;82.77;95039.00;5088297;28;20669;-50
2022/12/17 19:11:06;;;;;;;25.87;18.23;;;;;;;12.73;82.73;95038.16;5088273;28;20194;-48
2022/12/17 19:13:33;;;;;;;23.87;15.97;;;;;;;12.72;82.75;95044.25;5088366;28;20190;-47
2022/12/17 19:16:09;;;;;;;23.83;17.00;;;;;;;12.71;82.69;95050.34;5088268;28;20664;-46
2022/12/17 19:18:37;;;;;;;25.90;17.30;;;;;;;12.71;82.78;95052.09;5088405;28;20227;-49
2022/12/17 19:21:06;;;;;;;23.23;16.43;;;;;;;12.46;82.70;95021.00;5070801;28;20279;-47
2022/12/17 19:23:34;;;;;;;19.47;15.70;;;;;;;12.69;82.79;95062.50;5074968;28;20201;-46
2022/12/17 19:26:06;;;;;;;20.33;15.20;;;;;;;12.68;82.81;95063.44;5080665;28;20190;-48
2022/12/17 19:28:34;;;;;;;22.60;16.10;;;;;;;12.53;82.69;95036.66;5068298;28;20202;-45
2022/12/17 19:31:01;;;;;;;22.80;14.60;;;;;;;12.68;82.68;95070.34;5068031;28;20186;-45
2022/12/17 19:33:28;;;;;;;19.67;15.07;;;;;;;12.67;82.94;95068.72;5067743;28;20202;-45
2022/12/17 19:36:02;;;;;;;20.37;15.40;;;;;;;12.66;83.01;95070.50;5067975;28;20198;-46
2022/12/17 19:38:29;;;;;;;19.63;13.63;;;;;;;12.19;82.87;95000.47;5068038;28;20229;-46
2022/12/17 19:41:02;;;;;;;16.87;13.27;;;;;;;12.66;82.86;95074.81;5085545;28;20729;-47
2022/12/17 19:43:29;;;;;;;18.57;13.47;;;;;;;12.64;82.97;95067.25;5087102;28;20193;-49
2022/12/17 19:46:02;;;;;;;18.43;13.60;;;;;;;12.63;83.09;95077.66;5087918;28;20305;-46
2022/12/17 19:48:31;;;;;;;18.27;13.03;;;;;;;12.44;82.54;95046.00;5088499;28;20186;-47
2022/12/17 19:50:58;;;;;;;18.83;13.93;;;;;;;12.62;83.05;95078.63;5084491;28;20190;-48
2022/12/17 19:53:26;;;;;;;16.40;12.93;;;;;;;12.60;82.91;95081.31;5087202;28;20185;-49
2022/12/17 19:55:53;;;;;;;15.33;12.50;;;;;;;12.58;82.94;95082.41;5087123;28;20269;-46
2022/12/17 19:58:21;;;;;;;17.47;12.97;;;;;;;12.59;83.03;95084.81;5087767;28;20213;-47
2022/12/17 20:00:48;;;;;;;19.67;13.17;;;;;;;12.59;83.04;95089.94;5078053;28;20197;-48
2022/12/17 20:03:15;;;;;;;14.73;11.83;;;;;;;12.59;83.08;95089.16;5087143;28;20194;-47
2022/12/17 20:05:44;;;;;;;14.73;11.30;;;;;;;12.57;82.84;95094.44;5067242;28;20206;-46
2022/12/17 20:08:10;;;;;;;15.70;12.83;;;;;;;12.56;83.13;95090.22;5067361;28;20222;-44
2022/12/17 20:10:37;;;;;;;16.97;11.13;;;;;;;12.59;83.03;95105.34;5068983;28;20185;-46
2022/12/17 20:13:04;;;;;;;19.17;12.03;;;;;;;12.59;83.04;95109.66;5079711;28;20193;-47
2022/12/17 20:15:33;;;;;;;12.67;10.70;;;;;;;12.60;83.05;95116.41;5087273;28;20197;-47
2022/12/17 20:17:59;;;;;;;16.10;11.80;;;;;;;12.62;83.13;95117.91;5087113;28;20190;-46
2022/12/17 20:20:26;;;;;;;12.33;10.43;;;;;;;12.64;82.85;95117.75;5087308;28;20202;-45
2022/12/17 20:22:53;;;;;;;13.40;10.90;;;;;;;12.67;82.69;95125.19;5084771;28;20220;-46
2022/12/17 20:25:20;;;;;;;14.37;11.13;;;;;;;12.70;82.92;95132.59;5087138;28;20182;-46
2022/12/17 20:27:47;;;;;;;13.57;10.40;;;;;;;12.72;82.75;95133.25;5071264;28;20198;-47
2022/12/17 20:30:14;;;;;;;15.93;11.07;;;;;;;12.74;82.79;95131.38;5066975;28;20190;-45
2022/12/17 20:32:42;;;;;;;13.13;10.57;;;;;;;12.76;82.69;95137.16;5067937;28;20778;-45
2022/12/17 20:35:09;;;;;;;15.70;10.57;;;;;;;12.78;82.81;95140.44;5084988;28;20194;-45
2022/12/17 20:37:36;;;;;;;14.67;10.97;;;;;;;12.80;82.75;95144.44;5076773;28;20247;-47
2022/12/17 20:40:02;;;;;;;15.23;11.00;;;;;;;12.83;82.54;95150.28;5086851;28;20216;-44
2022/12/17 20:42:29;;;;;;;14.20;10.60;;;;;;;12.83;82.63;95153.63;5085747;28;20186;-45
2022/12/17 20:44:56;;;;;;;12.40;9.67;;;;;;;12.86;82.42;95161.03;5076263;28;20190;-48
2022/12/17 20:47:23;;;;;;;15.00;10.93;;;;;;;12.87;82.69;95160.13;5066624;28;20706;-45
2022/12/17 20:49:51;;;;;;;11.87;10.03;;;;;;;12.81;82.70;95147.81;5066608;28;20236;-46
2022/12/17 20:52:18;;;;;;;11.80;10.47;;;;;;;12.90;82.59;95167.50;5069172;28;20959;-48
2022/12/17 20:54:45;;;;;;;11.73;9.23;;;;;;;12.92;82.37;95175.91;5073067;28;20670;-46
2022/12/17 20:57:12;;;;;;;11.83;9.90;;;;;;;12.91;82.37;95170.88;5073617;28;20232;-46
2022/12/17 20:59:39;;;;;;;11.77;9.27;;;;;;;12.95;82.49;95179.94;5086497;28;20214;-47
2022/12/17 21:02:06;;;;;;;12.37;9.73;;;;;;;12.93;82.11;95180.06;5089290;28;20288;-45
2022/12/17 21:04:33;;;;;;;12.00;9.47;;;;;;;12.97;82.51;95178.03;5088873;28;20638;-45
2022/12/17 21:07:01;;;;;;;13.93;9.87;;;;;;;12.97;82.36;95186.56;5073566;28;20653;-45
2022/12/17 21:09:28;;;;;;;11.70;9.33;;;;;;;12.97;82.30;95181.41;5069637;28;20194;-45
2022/12/17 21:11:54;;;;;;;10.73;8.27;;;;;;;12.98;82.26;95195.06;5070284;28;20549;-44
2022/12/17 21:14:21;;;;;;;12.10;8.90;;;;;;;12.98;82.14;95193.28;5073735;28;20193;-45
2022/12/17 21:16:48;;;;;;;11.23;9.10;;;;;;;12.99;82.27;95196.66;5079686;28;20182;-48
2022/12/17 21:19:18;;;;;;;10.43;8.10;;;;;;;12.98;82.45;95195.88;5070350;28;20226;-47
2022/12/17 21:21:45;;;;;;;11.00;8.33;;;;;;;12.73;82.06;95158.78;5070440;28;20182;-45
2022/12/17 21:24:13;;;;;;;10.13;8.63;;;;;;;13.00;82.35;95203.44;5070064;28;20202;-47
2022/12/17 21:26:41;;;;;;;9.67;8.30;;;;;;;12.99;82.13;95210.31;5073574;28;20273;-46
2022/12/17 21:29:09;;;;;;;10.00;8.37;;;;;;;13.00;82.18;95216.28;5090388;28;20205;-48
2022/12/17 21:31:39;;;;;;;11.20;8.10;;;;;;;12.88;82.24;95194.28;5090583;28;20193;-47
2022/12/17 21:34:08;;;;;;;10.30;8.47;;;;;;;12.98;82.13;95210.47;5090317;28;20190;-48
2022/12/17 21:36:34;;;;;;;8.80;7.90;;;;;;;13.00;81.94;95211.94;5087954;28;20213;-47
2022/12/17 21:39:02;;;;;;;9.43;8.40;;;;;;;13.00;82.05;95216.28;5089035;28;20650;-46
2022/12/17 21:41:32;;;;;;;9.43;8.20;;;;;;;13.00;81.97;95213.72;5089542;28;20675;-47
2022/12/17 21:44:01;;;;;;;10.23;8.40;;;;;;;12.84;81.82;95196.31;5090233;28;20253;-46
2022/12/17 21:46:29;;;;;;;9.83;7.83;;;;;;;12.79;82.05;95194.16;5088901;28;20198;-47
2022/12/17 21:48:57;;;;;;;11.53;8.67;;;;;;;12.99;81.91;95225.72;5088965;28;20189;-47
2022/12/17 21:51:24;;;;;;;9.23;8.00;;;;;;;12.99;81.83;95230.84;5089590;28;20193;-47
2022/12/17 21:53:52;;;;;;;8.33;7.23;;;;;;;13.00;81.75;95240.19;5089367;28;20275;-46
2022/12/17 21:56:19;;;;;;;9.17;7.30;;;;;;;13.00;81.87;95239.41;5088903;28;20237;-46
2022/12/17 21:58:48;;;;;;;8.63;7.73;;;;;;;12.99;81.67;95235.19;5087509;28;20214;-46
2022/12/17 22:01:17;;;;;;;7.27;6.47;;;;;;;12.99;81.85;95238.56;5071677;28;20197;-44
2022/12/17 22:03:45;;;;;;;9.03;7.27;;;;;;;12.99;81.94;95243.69;5069096;28;20201;-45
2022/12/17 22:06:14;;;;;;;8.37;6.50;;;;;;;12.99;81.61;95238.56;5069163;28;20201;-45
2022/12/17 22:08:42;;;;;;;8.07;6.80;;;;;;;12.90;81.60;95220.63;5070116;28;20190;-45
2022/12/17 22:11:09;;;;;;;7.73;6.80;;;;;;;13.00;81.61;95247.09;5087042;28;20263;-45
2022/12/17 22:16:24;;;;;;;9.33;6.87;;;;;;;12.98;81.61;95236.94;5089167;28;20212;-45
2022/12/17 22:18:50;;;;;;;7.57;6.47;;;;;;;12.98;81.49;95244.66;5087499;28;20206;-46
2022/12/17 22:21:17;;;;;;;7.83;6.63;;;;;;;12.98;81.38;95244.66;5074145;28;20193;-45
2022/12/17 22:23:46;;;;;;;7.83;7.03;;;;;;;12.98;81.32;95244.66;5068201;28;20194;-45
2022/12/17 22:26:15;;;;;;;8.13;6.63;;;;;;;12.93;81.40;95235.75;5068470;28;20281;-46
2022/12/17 22:28:43;;;;;;;7.93;6.63;;;;;;;12.98;81.40;95254.91;5068475;28;20551;-46
2022/12/17 22:33:57;;;;;;;7.97;6.33;;;;;;;12.96;81.31;95248.31;5088827;28;20177;-45
2022/12/17 22:36:24;;;;;;;7.87;6.67;;;;;;;12.95;81.31;95255.22;5088389;28;20204;-46
2022/12/17 22:38:51;;;;;;;6.90;6.20;;;;;;;12.95;81.16;95251.81;5088474;28;20236;-46
2022/12/17 22:44:00;;;;;;;7.07;5.83;;;;;;;12.98;81.21;95266.94;5068255;28;20742;-49
2022/12/17 22:46:27;;;;;;;6.37;5.77;;;;;;;12.97;81.16;95263.56;5068109;28;20240;-45
2022/12/17 22:48:55;;;;;;;6.37;5.70;;;;;;;12.98;81.18;95275.44;5067625;28;20201;-46
2022/12/17 22:51:24;;;;;;;6.47;5.87;;;;;;;12.99;81.32;95276.25;5069441;28;20269;-44
2022/12/17 22:53:52;;;;;;;7.37;6.13;;;;;;;12.96;81.06;95267.09;5086316;28;20201;-46
2022/12/17 22:56:20;;;;;;;7.27;5.80;;;;;;;12.96;80.87;95274.00;5087821;28;20229;-46
2022/12/17 22:58:47;;;;;;;6.80;5.50;;;;;;;12.96;80.87;95276.56;5078562;28;20942;-47
2022/12/17 23:01:14;;;;;;;7.03;5.77;;;;;;;12.84;80.80;95264.81;5070620;28;20194;-46
2022/12/17 23:03:41;;;;;;;6.40;5.23;;;;;;;12.96;80.77;95279.94;5070340;28;20194;-45
2022/12/17 23:06:09;;;;;;;6.07;5.40;;;;;;;12.96;80.77;95282.50;5070381;28;20653;-47
2022/12/17 23:08:37;;;;;;;6.67;5.47;;;;;;;12.96;80.64;95285.06;5083716;28;20197;-45
2022/12/17 23:11:09;;;;;;;6.53;5.20;;;;;;;12.94;80.70;95284.38;5071824;28;20198;-45
2022/12/17 23:13:35;;;;;;;5.47;4.97;;;;;;;12.94;80.67;95302.34;5070132;28;20186;-45
2022/12/17 23:16:03;;;;;;;7.17;5.20;;;;;;;12.92;80.45;95295.75;5070434;28;20198;-47
2022/12/17 23:18:30;;;;;;;5.37;4.83;;;;;;;12.91;80.42;95301.81;5069752;28;20195;-46
2022/12/17 23:20:57;;;;;;;5.33;4.83;;;;;;;12.89;80.44;95307.09;5086397;28;20235;-45
2022/12/17 23:23:23;;;;;;;5.67;5.07;;;;;;;12.88;80.30;95314.94;5089640;28;20198;-46
2022/12/17 23:25:52;;;;;;;5.30;4.80;;;;;;;12.87;80.33;95315.88;5089966;28;20543;-46
2022/12/17 23:28:19;;;;;;;5.53;5.03;;;;;;;12.84;80.33;95324.66;5089738;28;20333;-46
2022/12/17 23:30:46;;;;;;;4.70;4.30;;;;;;;12.84;80.14;95323.84;5089792;28;20277;-46
2022/12/17 23:33:13;;;;;;;4.50;4.10;;;;;;;12.81;80.13;95323.16;5090069;28;20239;-45
2022/12/17 23:35:39;;;;;;;6.67;4.60;;;;;;;12.80;80.10;95329.25;5090218;28;20182;-47
2022/12/17 23:38:06;;;;;;;4.10;3.60;;;;;;;12.78;79.99;95333.72;5090030;28;20211;-46
2022/12/17 23:40:33;;;;;;;4.73;4.10;;;;;;;12.74;79.92;95336.69;5089541;28;20228;-45
2022/12/17 23:43:01;;;;;;;4.80;4.40;;;;;;;12.75;80.07;95343.44;5089833;28;20338;-45
2022/12/17 23:45:28;;;;;;;6.87;4.33;;;;;;;12.71;79.75;95358.28;5089886;28;20193;-46
2022/12/17 23:47:58;;;;;;;5.63;4.00;;;;;;;12.69;79.98;95356.78;5090126;28;20182;-46
2022/12/17 23:50:24;;;;;;;5.00;4.23;;;;;;;12.67;79.75;95361.25;5089718;28;20656;-46
2022/12/17 23:52:52;;;;;;;5.53;3.90;;;;;;;12.63;79.63;95363.28;5089580;28;20200;-46
2022/12/17 23:55:19;;;;;;;4.60;3.93;;;;;;;12.62;79.74;95363.44;5089260;28;20675;-46
2022/12/17 23:57:45;;;;;;;4.47;3.60;;;;;;;12.58;79.62;95365.44;5081546;28;20589;-48
